sensor_id;sensor_type;location;lat;lon;timestamp;P1;durP1;ratioP1;P2;durP2;ratioP2
42714;SDS011;28351;51.480;5.706;2023-05-02T00:00:25;28.33;;;13.02;;
42714;SDS011;28351;51.480;5.706;2023-05-02T00:02:52;24.40;;;11.73;;
42714;SDS011;28351;51.480;5.706;2023-05-02T00:05:20;26.65;;;13.48;;
42714;SDS011;28351;51.480;5.706;2023-05-02T00:07:46;29.65;;;12.40;;
42714;SDS011;28351;51.480;5.706;2023-05-02T00:10:12;23.92;;;11.52;;
42714;SDS011;28351;51.480;5.706;2023-05-02T00:12:37;27.00;;;11.88;;
42714;SDS011;28351;51.480;5.706;2023-05-02T00:15:03;30.13;;;13.30;;
42714;SDS011;28351;51.480;5.706;2023-05-02T00:17:30;25.35;;;12.32;;
42714;SDS011;28351;51.480;5.706;2023-05-02T00:19:55;26.13;;;11.55;;
42714;SDS011;28351;51.480;5.706;2023-05-02T00:22:21;31.08;;;12.23;;
42714;SDS011;28351;51.480;5.706;2023-05-02T00:24:47;28.85;;;12.00;;
42714;SDS011;28351;51.480;5.706;2023-05-02T00:27:12;24.65;;;11.23;;
42714;SDS011;28351;51.480;5.706;2023-05-02T00:29:38;25.48;;;12.00;;
42714;SDS011;28351;51.480;5.706;2023-05-02T00:32:05;27.58;;;11.77;;
42714;SDS011;28351;51.480;5.706;2023-05-02T00:34:31;27.90;;;11.68;;
42714;SDS011;28351;51.480;5.706;2023-05-02T00:36:57;28.17;;;11.98;;
42714;SDS011;28351;51.480;5.706;2023-05-02T00:39:23;31.90;;;13.63;;
42714;SDS011;28351;51.480;5.706;2023-05-02T00:41:55;28.00;;;11.52;;
42714;SDS011;28351;51.480;5.706;2023-05-02T00:44:24;27.38;;;11.93;;
42714;SDS011;28351;51.480;5.706;2023-05-02T00:46:56;24.55;;;11.27;;
42714;SDS011;28351;51.480;5.706;2023-05-02T00:49:26;23.60;;;11.45;;
42714;SDS011;28351;51.480;5.706;2023-05-02T00:51:52;28.13;;;11.02;;
42714;SDS011;28351;51.480;5.706;2023-05-02T00:54:31;22.48;;;9.65;;
42714;SDS011;28351;51.480;5.706;2023-05-02T00:56:56;22.98;;;10.02;;
42714;SDS011;28351;51.480;5.706;2023-05-02T00:59:22;21.95;;;9.85;;
42714;SDS011;28351;51.480;5.706;2023-05-02T01:01:54;20.08;;;9.48;;
42714;SDS011;28351;51.480;5.706;2023-05-02T01:07:30;21.90;;;9.13;;
42714;SDS011;28351;51.480;5.706;2023-05-02T01:10:28;26.70;;;10.10;;
42714;SDS011;28351;51.480;5.706;2023-05-02T01:13:16;19.00;;;8.55;;
42714;SDS011;28351;51.480;5.706;2023-05-02T01:15:46;24.20;;;9.73;;
42714;SDS011;28351;51.480;5.706;2023-05-02T01:18:15;27.38;;;9.70;;
42714;SDS011;28351;51.480;5.706;2023-05-02T01:20:45;20.35;;;8.90;;
42714;SDS011;28351;51.480;5.706;2023-05-02T01:23:27;17.63;;;8.90;;
42714;SDS011;28351;51.480;5.706;2023-05-02T01:31:24;19.10;;;8.93;;
42714;SDS011;28351;51.480;5.706;2023-05-02T01:33:53;19.38;;;9.60;;
42714;SDS011;28351;51.480;5.706;2023-05-02T01:36:21;23.83;;;9.57;;
42714;SDS011;28351;51.480;5.706;2023-05-02T01:38:50;19.50;;;9.50;;
42714;SDS011;28351;51.480;5.706;2023-05-02T01:41:18;18.40;;;8.77;;
42714;SDS011;28351;51.480;5.706;2023-05-02T01:43:44;20.52;;;8.30;;
42714;SDS011;28351;51.480;5.706;2023-05-02T01:46:11;14.75;;;6.93;;
42714;SDS011;28351;51.480;5.706;2023-05-02T01:48:39;15.93;;;7.05;;
42714;SDS011;28351;51.480;5.706;2023-05-02T01:51:09;15.85;;;6.88;;
42714;SDS011;28351;51.480;5.706;2023-05-02T01:53:36;13.38;;;6.85;;
42714;SDS011;28351;51.480;5.706;2023-05-02T01:56:03;14.90;;;6.78;;
42714;SDS011;28351;51.480;5.706;2023-05-02T01:58:30;12.88;;;6.38;;
42714;SDS011;28351;51.480;5.706;2023-05-02T02:00:58;15.03;;;7.50;;
42714;SDS011;28351;51.480;5.706;2023-05-02T02:03:25;16.42;;;7.25;;
42714;SDS011;28351;51.480;5.706;2023-05-02T02:05:54;12.98;;;6.45;;
42714;SDS011;28351;51.480;5.706;2023-05-02T02:08:20;11.48;;;6.35;;
42714;SDS011;28351;51.480;5.706;2023-05-02T02:10:56;13.38;;;6.25;;
42714;SDS011;28351;51.480;5.706;2023-05-02T02:13:29;14.07;;;7.07;;
42714;SDS011;28351;51.480;5.706;2023-05-02T02:16:00;15.82;;;6.82;;
42714;SDS011;28351;51.480;5.706;2023-05-02T02:18:28;15.18;;;6.30;;
42714;SDS011;28351;51.480;5.706;2023-05-02T02:21:00;9.68;;;6.15;;
42714;SDS011;28351;51.480;5.706;2023-05-02T02:23:27;13.25;;;7.07;;
42714;SDS011;28351;51.480;5.706;2023-05-02T02:25:54;14.15;;;6.78;;
42714;SDS011;28351;51.480;5.706;2023-05-02T02:28:23;18.80;;;7.68;;
42714;SDS011;28351;51.480;5.706;2023-05-02T02:30:49;20.27;;;7.80;;
42714;SDS011;28351;51.480;5.706;2023-05-02T02:33:18;17.02;;;8.35;;
42714;SDS011;28351;51.480;5.706;2023-05-02T02:35:49;21.60;;;8.60;;
42714;SDS011;28351;51.480;5.706;2023-05-02T02:38:25;15.07;;;8.32;;
42714;SDS011;28351;51.480;5.706;2023-05-02T02:41:00;18.52;;;8.45;;
42714;SDS011;28351;51.480;5.706;2023-05-02T02:44:25;17.63;;;8.02;;
42714;SDS011;28351;51.480;5.706;2023-05-02T02:55:44;23.73;;;9.93;;
42714;SDS011;28351;51.480;5.706;2023-05-02T03:00:24;21.38;;;9.57;;
42714;SDS011;28351;51.480;5.706;2023-05-02T03:02:52;22.23;;;10.52;;
42714;SDS011;28351;51.480;5.706;2023-05-02T03:05:20;17.65;;;9.35;;
42714;SDS011;28351;51.480;5.706;2023-05-02T03:07:46;17.45;;;9.60;;
42714;SDS011;28351;51.480;5.706;2023-05-02T03:10:12;23.33;;;10.52;;
42714;SDS011;28351;51.480;5.706;2023-05-02T03:12:38;22.35;;;10.85;;
42714;SDS011;28351;51.480;5.706;2023-05-02T03:18:06;23.08;;;9.82;;
42714;SDS011;28351;51.480;5.706;2023-05-02T03:20:32;18.85;;;9.80;;
42714;SDS011;28351;51.480;5.706;2023-05-02T03:22:58;19.48;;;9.55;;
42714;SDS011;28351;51.480;5.706;2023-05-02T03:25:23;19.70;;;9.63;;
42714;SDS011;28351;51.480;5.706;2023-05-02T03:27:49;17.98;;;9.40;;
42714;SDS011;28351;51.480;5.706;2023-05-02T03:30:24;18.83;;;9.82;;
42714;SDS011;28351;51.480;5.706;2023-05-02T03:32:49;22.63;;;9.27;;
42714;SDS011;28351;51.480;5.706;2023-05-02T03:35:15;17.20;;;9.00;;
42714;SDS011;28351;51.480;5.706;2023-05-02T03:37:41;18.08;;;8.45;;
42714;SDS011;28351;51.480;5.706;2023-05-02T03:40:07;21.55;;;9.52;;
42714;SDS011;28351;51.480;5.706;2023-05-02T03:42:35;19.23;;;9.48;;
42714;SDS011;28351;51.480;5.706;2023-05-02T03:45:04;20.05;;;10.43;;
42714;SDS011;28351;51.480;5.706;2023-05-02T03:47:31;17.60;;;9.50;;
42714;SDS011;28351;51.480;5.706;2023-05-02T03:49:57;19.08;;;9.70;;
42714;SDS011;28351;51.480;5.706;2023-05-02T03:52:23;19.88;;;9.57;;
42714;SDS011;28351;51.480;5.706;2023-05-02T03:54:49;18.83;;;9.13;;
42714;SDS011;28351;51.480;5.706;2023-05-02T03:57:15;19.35;;;9.93;;
42714;SDS011;28351;51.480;5.706;2023-05-02T03:59:41;21.45;;;9.57;;
42714;SDS011;28351;51.480;5.706;2023-05-02T04:02:09;20.13;;;9.98;;
42714;SDS011;28351;51.480;5.706;2023-05-02T04:04:35;23.02;;;10.50;;
42714;SDS011;28351;51.480;5.706;2023-05-02T04:07:02;21.58;;;10.48;;
42714;SDS011;28351;51.480;5.706;2023-05-02T04:09:28;16.80;;;9.60;;
42714;SDS011;28351;51.480;5.706;2023-05-02T04:11:53;26.70;;;11.23;;
42714;SDS011;28351;51.480;5.706;2023-05-02T04:14:19;17.90;;;9.85;;
42714;SDS011;28351;51.480;5.706;2023-05-02T04:16:48;15.95;;;8.68;;
42714;SDS011;28351;51.480;5.706;2023-05-02T04:19:14;11.85;;;7.68;;
42714;SDS011;28351;51.480;5.706;2023-05-02T04:21:40;12.85;;;7.93;;
42714;SDS011;28351;51.480;5.706;2023-05-02T04:24:06;10.63;;;5.95;;
42714;SDS011;28351;51.480;5.706;2023-05-02T04:26:33;11.00;;;5.35;;
42714;SDS011;28351;51.480;5.706;2023-05-02T04:28:58;11.13;;;6.60;;
42714;SDS011;28351;51.480;5.706;2023-05-02T04:31:24;9.35;;;5.50;;
42714;SDS011;28351;51.480;5.706;2023-05-02T04:33:50;14.60;;;5.60;;
42714;SDS011;28351;51.480;5.706;2023-05-02T04:36:16;11.07;;;5.65;;
42714;SDS011;28351;51.480;5.706;2023-05-02T04:38:45;8.50;;;4.85;;
42714;SDS011;28351;51.480;5.706;2023-05-02T04:41:11;6.05;;;4.68;;
42714;SDS011;28351;51.480;5.706;2023-05-02T04:43:37;8.98;;;4.70;;
42714;SDS011;28351;51.480;5.706;2023-05-02T04:46:02;6.45;;;4.25;;
42714;SDS011;28351;51.480;5.706;2023-05-02T04:48:28;5.88;;;3.63;;
42714;SDS011;28351;51.480;5.706;2023-05-02T04:51:05;6.90;;;3.35;;
42714;SDS011;28351;51.480;5.706;2023-05-02T04:53:32;6.43;;;2.80;;
42714;SDS011;28351;51.480;5.706;2023-05-02T04:55:57;4.47;;;2.67;;
42714;SDS011;28351;51.480;5.706;2023-05-02T04:58:26;6.63;;;3.00;;
42714;SDS011;28351;51.480;5.706;2023-05-02T05:00:51;3.22;;;1.98;;
42714;SDS011;28351;51.480;5.706;2023-05-02T05:03:18;5.78;;;2.47;;
42714;SDS011;28351;51.480;5.706;2023-05-02T05:05:44;3.70;;;2.00;;
42714;SDS011;28351;51.480;5.706;2023-05-02T05:08:10;5.03;;;2.40;;
42714;SDS011;28351;51.480;5.706;2023-05-02T05:10:36;3.65;;;2.00;;
42714;SDS011;28351;51.480;5.706;2023-05-02T05:13:10;5.72;;;2.30;;
42714;SDS011;28351;51.480;5.706;2023-05-02T05:15:37;3.88;;;2.00;;
42714;SDS011;28351;51.480;5.706;2023-05-02T05:18:04;7.43;;;2.30;;
42714;SDS011;28351;51.480;5.706;2023-05-02T05:20:33;5.20;;;1.90;;
42714;SDS011;28351;51.480;5.706;2023-05-02T05:22:58;3.97;;;1.90;;
42714;SDS011;28351;51.480;5.706;2023-05-02T05:25:24;3.17;;;1.70;;
42714;SDS011;28351;51.480;5.706;2023-05-02T05:27:51;2.55;;;1.60;;
42714;SDS011;28351;51.480;5.706;2023-05-02T05:30:17;2.83;;;1.35;;
42714;SDS011;28351;51.480;5.706;2023-05-02T05:32:42;2.53;;;1.55;;
42714;SDS011;28351;51.480;5.706;2023-05-02T05:35:08;4.65;;;1.50;;
42714;SDS011;28351;51.480;5.706;2023-05-02T05:37:34;3.72;;;1.50;;
42714;SDS011;28351;51.480;5.706;2023-05-02T05:40:03;3.03;;;1.30;;
42714;SDS011;28351;51.480;5.706;2023-05-02T05:42:32;4.78;;;1.65;;
42714;SDS011;28351;51.480;5.706;2023-05-02T05:44:58;5.10;;;1.67;;
42714;SDS011;28351;51.480;5.706;2023-05-02T05:47:23;3.95;;;1.60;;
42714;SDS011;28351;51.480;5.706;2023-05-02T05:49:53;5.55;;;1.58;;
42714;SDS011;28351;51.480;5.706;2023-05-02T05:52:20;3.42;;;1.60;;
42714;SDS011;28351;51.480;5.706;2023-05-02T05:54:45;4.72;;;1.90;;
42714;SDS011;28351;51.480;5.706;2023-05-02T05:57:11;3.90;;;1.45;;
42714;SDS011;28351;51.480;5.706;2023-05-02T05:59:37;4.03;;;1.83;;
42714;SDS011;28351;51.480;5.706;2023-05-02T06:02:03;4.53;;;1.67;;
42714;SDS011;28351;51.480;5.706;2023-05-02T06:04:29;6.55;;;1.60;;
42714;SDS011;28351;51.480;5.706;2023-05-02T06:06:55;3.85;;;1.75;;
42714;SDS011;28351;51.480;5.706;2023-05-02T06:09:20;4.93;;;1.95;;
42714;SDS011;28351;51.480;5.706;2023-05-02T06:11:46;3.28;;;1.70;;
42714;SDS011;28351;51.480;5.706;2023-05-02T06:14:12;4.07;;;1.90;;
42714;SDS011;28351;51.480;5.706;2023-05-02T06:16:37;5.13;;;1.60;;
42714;SDS011;28351;51.480;5.706;2023-05-02T06:19:03;4.57;;;2.00;;
42714;SDS011;28351;51.480;5.706;2023-05-02T06:21:28;5.38;;;1.80;;
42714;SDS011;28351;51.480;5.706;2023-05-02T06:23:55;7.63;;;1.80;;
42714;SDS011;28351;51.480;5.706;2023-05-02T06:26:21;5.13;;;1.33;;
42714;SDS011;28351;51.480;5.706;2023-05-02T06:28:46;8.88;;;1.88;;
42714;SDS011;28351;51.480;5.706;2023-05-02T06:31:15;7.07;;;1.75;;
42714;SDS011;28351;51.480;5.706;2023-05-02T06:36:06;3.85;;;1.75;;
42714;SDS011;28351;51.480;5.706;2023-05-02T06:38:32;2.65;;;1.67;;
42714;SDS011;28351;51.480;5.706;2023-05-02T06:40:58;2.65;;;1.50;;
42714;SDS011;28351;51.480;5.706;2023-05-02T06:43:26;4.65;;;2.00;;
42714;SDS011;28351;51.480;5.706;2023-05-02T06:45:52;5.10;;;1.73;;
42714;SDS011;28351;51.480;5.706;2023-05-02T06:48:22;3.60;;;1.50;;
42714;SDS011;28351;51.480;5.706;2023-05-02T06:50:50;4.07;;;2.20;;
42714;SDS011;28351;51.480;5.706;2023-05-02T06:53:16;3.25;;;1.55;;
42714;SDS011;28351;51.480;5.706;2023-05-02T06:55:41;5.38;;;2.03;;
42714;SDS011;28351;51.480;5.706;2023-05-02T06:58:08;7.55;;;2.03;;
42714;SDS011;28351;51.480;5.706;2023-05-02T07:00:34;5.22;;;1.65;;
42714;SDS011;28351;51.480;5.706;2023-05-02T07:03:00;3.78;;;1.60;;
42714;SDS011;28351;51.480;5.706;2023-05-02T07:05:25;9.27;;;1.70;;
42714;SDS011;28351;51.480;5.706;2023-05-02T07:07:51;3.85;;;1.92;;
42714;SDS011;28351;51.480;5.706;2023-05-02T07:10:17;7.18;;;1.95;;
42714;SDS011;28351;51.480;5.706;2023-05-02T07:12:42;5.90;;;1.80;;
42714;SDS011;28351;51.480;5.706;2023-05-02T07:15:08;4.20;;;1.55;;
42714;SDS011;28351;51.480;5.706;2023-05-02T07:17:34;5.45;;;1.88;;
42714;SDS011;28351;51.480;5.706;2023-05-02T07:20:00;4.28;;;1.92;;
42714;SDS011;28351;51.480;5.706;2023-05-02T07:22:25;7.72;;;2.08;;
42714;SDS011;28351;51.480;5.706;2023-05-02T07:25:00;4.57;;;1.85;;
42714;SDS011;28351;51.480;5.706;2023-05-02T07:27:26;6.78;;;1.88;;
42714;SDS011;28351;51.480;5.706;2023-05-02T07:29:52;5.28;;;1.92;;
42714;SDS011;28351;51.480;5.706;2023-05-02T07:32:18;4.75;;;1.63;;
42714;SDS011;28351;51.480;5.706;2023-05-02T07:34:45;3.28;;;1.48;;
42714;SDS011;28351;51.480;5.706;2023-05-02T07:37:11;9.95;;;2.45;;
42714;SDS011;28351;51.480;5.706;2023-05-02T07:39:37;3.97;;;1.52;;
42714;SDS011;28351;51.480;5.706;2023-05-02T07:42:03;3.13;;;1.30;;
42714;SDS011;28351;51.480;5.706;2023-05-02T07:44:28;3.28;;;1.48;;
42714;SDS011;28351;51.480;5.706;2023-05-02T07:46:56;3.78;;;1.30;;
42714;SDS011;28351;51.480;5.706;2023-05-02T07:49:21;8.38;;;1.60;;
42714;SDS011;28351;51.480;5.706;2023-05-02T07:51:47;3.83;;;1.45;;
42714;SDS011;28351;51.480;5.706;2023-05-02T07:56:45;4.97;;;1.60;;
42714;SDS011;28351;51.480;5.706;2023-05-02T07:59:11;4.35;;;1.83;;
42714;SDS011;28351;51.480;5.706;2023-05-02T08:01:39;6.25;;;2.08;;
42714;SDS011;28351;51.480;5.706;2023-05-02T08:04:08;6.75;;;1.92;;
42714;SDS011;28351;51.480;5.706;2023-05-02T08:06:35;8.32;;;1.88;;
42714;SDS011;28351;51.480;5.706;2023-05-02T08:09:03;3.42;;;1.35;;
42714;SDS011;28351;51.480;5.706;2023-05-02T08:11:29;4.60;;;1.65;;
42714;SDS011;28351;51.480;5.706;2023-05-02T08:13:55;5.68;;;2.00;;
42714;SDS011;28351;51.480;5.706;2023-05-02T08:16:20;5.45;;;1.88;;
42714;SDS011;28351;51.480;5.706;2023-05-02T08:18:46;7.35;;;2.53;;
42714;SDS011;28351;51.480;5.706;2023-05-02T08:21:12;6.47;;;2.10;;
42714;SDS011;28351;51.480;5.706;2023-05-02T08:23:39;12.00;;;2.63;;
42714;SDS011;28351;51.480;5.706;2023-05-02T08:26:09;5.78;;;2.22;;
42714;SDS011;28351;51.480;5.706;2023-05-02T08:28:34;6.15;;;1.98;;
42714;SDS011;28351;51.480;5.706;2023-05-02T08:31:00;6.35;;;1.95;;
42714;SDS011;28351;51.480;5.706;2023-05-02T08:33:26;5.32;;;2.38;;
42714;SDS011;28351;51.480;5.706;2023-05-02T08:35:51;5.68;;;1.98;;
42714;SDS011;28351;51.480;5.706;2023-05-02T08:38:17;6.47;;;1.75;;
42714;SDS011;28351;51.480;5.706;2023-05-02T08:40:42;3.97;;;2.03;;
42714;SDS011;28351;51.480;5.706;2023-05-02T08:43:09;8.48;;;2.78;;
42714;SDS011;28351;51.480;5.706;2023-05-02T08:45:39;8.55;;;1.98;;
42714;SDS011;28351;51.480;5.706;2023-05-02T08:48:07;3.47;;;1.75;;
42714;SDS011;28351;51.480;5.706;2023-05-02T08:50:38;5.90;;;1.90;;
42714;SDS011;28351;51.480;5.706;2023-05-02T08:53:06;5.30;;;1.58;;
42714;SDS011;28351;51.480;5.706;2023-05-02T08:55:33;5.57;;;1.83;;
42714;SDS011;28351;51.480;5.706;2023-05-02T08:58:04;3.58;;;1.35;;
42714;SDS011;28351;51.480;5.706;2023-05-02T09:00:31;7.68;;;1.60;;
42714;SDS011;28351;51.480;5.706;2023-05-02T09:03:23;5.55;;;1.42;;
42714;SDS011;28351;51.480;5.706;2023-05-02T09:06:04;6.32;;;1.83;;
42714;SDS011;28351;51.480;5.706;2023-05-02T09:08:34;4.82;;;1.52;;
42714;SDS011;28351;51.480;5.706;2023-05-02T09:11:01;2.40;;;1.15;;
42714;SDS011;28351;51.480;5.706;2023-05-02T09:13:31;7.75;;;1.40;;
42714;SDS011;28351;51.480;5.706;2023-05-02T09:15:58;4.60;;;1.60;;
42714;SDS011;28351;51.480;5.706;2023-05-02T09:18:29;5.60;;;1.80;;
42714;SDS011;28351;51.480;5.706;2023-05-02T09:21:09;5.70;;;1.88;;
42714;SDS011;28351;51.480;5.706;2023-05-02T09:23:43;3.38;;;1.60;;
42714;SDS011;28351;51.480;5.706;2023-05-02T09:26:11;3.78;;;1.42;;
42714;SDS011;28351;51.480;5.706;2023-05-02T09:28:42;6.18;;;1.58;;
42714;SDS011;28351;51.480;5.706;2023-05-02T09:31:33;5.25;;;1.55;;
42714;SDS011;28351;51.480;5.706;2023-05-02T09:34:12;6.15;;;1.70;;
42714;SDS011;28351;51.480;5.706;2023-05-02T09:36:42;5.80;;;1.80;;
42714;SDS011;28351;51.480;5.706;2023-05-02T09:39:12;6.90;;;1.65;;
42714;SDS011;28351;51.480;5.706;2023-05-02T09:41:43;4.38;;;1.48;;
42714;SDS011;28351;51.480;5.706;2023-05-02T09:44:11;4.70;;;1.40;;
42714;SDS011;28351;51.480;5.706;2023-05-02T09:46:41;2.95;;;1.60;;
42714;SDS011;28351;51.480;5.706;2023-05-02T09:49:07;4.43;;;1.30;;
42714;SDS011;28351;51.480;5.706;2023-05-02T09:51:36;6.90;;;1.58;;
42714;SDS011;28351;51.480;5.706;2023-05-02T09:54:02;5.25;;;1.80;;
42714;SDS011;28351;51.480;5.706;2023-05-02T09:56:28;6.72;;;1.20;;
42714;SDS011;28351;51.480;5.706;2023-05-02T09:59:14;3.50;;;1.52;;
42714;SDS011;28351;51.480;5.706;2023-05-02T10:01:40;5.28;;;1.85;;
42714;SDS011;28351;51.480;5.706;2023-05-02T10:04:11;4.43;;;1.60;;
42714;SDS011;28351;51.480;5.706;2023-05-02T10:06:42;5.55;;;1.55;;
42714;SDS011;28351;51.480;5.706;2023-05-02T10:09:08;4.28;;;1.65;;
42714;SDS011;28351;51.480;5.706;2023-05-02T10:11:36;3.25;;;1.80;;
42714;SDS011;28351;51.480;5.706;2023-05-02T10:14:04;3.35;;;1.48;;
42714;SDS011;28351;51.480;5.706;2023-05-02T10:16:33;5.18;;;1.85;;
42714;SDS011;28351;51.480;5.706;2023-05-02T10:19:06;6.72;;;1.77;;
42714;SDS011;28351;51.480;5.706;2023-05-02T10:21:36;5.82;;;2.03;;
42714;SDS011;28351;51.480;5.706;2023-05-02T10:24:04;6.03;;;2.10;;
42714;SDS011;28351;51.480;5.706;2023-05-02T10:26:30;7.30;;;2.08;;
42714;SDS011;28351;51.480;5.706;2023-05-02T10:28:59;4.32;;;1.75;;
42714;SDS011;28351;51.480;5.706;2023-05-02T10:31:25;3.83;;;1.95;;
42714;SDS011;28351;51.480;5.706;2023-05-02T10:33:56;5.85;;;2.05;;
42714;SDS011;28351;51.480;5.706;2023-05-02T10:36:24;7.65;;;1.90;;
42714;SDS011;28351;51.480;5.706;2023-05-02T10:38:50;6.07;;;2.03;;
42714;SDS011;28351;51.480;5.706;2023-05-02T10:41:20;6.18;;;1.92;;
42714;SDS011;28351;51.480;5.706;2023-05-02T10:43:47;2.95;;;1.65;;
42714;SDS011;28351;51.480;5.706;2023-05-02T10:48:59;5.10;;;1.77;;
42714;SDS011;28351;51.480;5.706;2023-05-02T10:51:36;3.58;;;1.85;;
42714;SDS011;28351;51.480;5.706;2023-05-02T10:54:21;4.57;;;1.90;;
42714;SDS011;28351;51.480;5.706;2023-05-02T10:57:03;3.30;;;1.73;;
42714;SDS011;28351;51.480;5.706;2023-05-02T10:59:40;4.57;;;1.70;;
42714;SDS011;28351;51.480;5.706;2023-05-02T11:05:04;4.60;;;1.60;;
42714;SDS011;28351;51.480;5.706;2023-05-02T11:07:36;4.78;;;1.58;;
42714;SDS011;28351;51.480;5.706;2023-05-02T11:12:50;6.90;;;1.70;;
42714;SDS011;28351;51.480;5.706;2023-05-02T11:18:11;3.00;;;1.40;;
42714;SDS011;28351;51.480;5.706;2023-05-02T11:20:41;3.38;;;1.55;;
42714;SDS011;28351;51.480;5.706;2023-05-02T11:25:58;4.57;;;1.75;;
42714;SDS011;28351;51.480;5.706;2023-05-02T11:34:01;2.20;;;1.58;;
42714;SDS011;28351;51.480;5.706;2023-05-02T11:36:30;2.72;;;1.50;;
42714;SDS011;28351;51.480;5.706;2023-05-02T11:39:02;3.72;;;1.48;;
42714;SDS011;28351;51.480;5.706;2023-05-02T11:41:39;3.72;;;1.48;;
42714;SDS011;28351;51.480;5.706;2023-05-02T11:47:25;3.25;;;1.70;;
42714;SDS011;28351;51.480;5.706;2023-05-02T11:50:05;2.65;;;1.70;;
42714;SDS011;28351;51.480;5.706;2023-05-02T11:52:38;3.90;;;1.52;;
42714;SDS011;28351;51.480;5.706;2023-05-02T11:55:20;4.80;;;1.88;;
42714;SDS011;28351;51.480;5.706;2023-05-02T12:07:59;6.07;;;1.85;;
42714;SDS011;28351;51.480;5.706;2023-05-02T12:13:23;4.43;;;1.80;;
42714;SDS011;28351;51.480;5.706;2023-05-02T12:16:07;2.92;;;1.58;;
42714;SDS011;28351;51.480;5.706;2023-05-02T12:18:36;4.95;;;2.47;;
42714;SDS011;28351;51.480;5.706;2023-05-02T12:24:22;4.13;;;1.77;;
42714;SDS011;28351;51.480;5.706;2023-05-02T12:33:40;5.95;;;2.10;;
42714;SDS011;28351;51.480;5.706;2023-05-02T12:40:13;3.45;;;2.15;;
42714;SDS011;28351;51.480;5.706;2023-05-02T12:43:02;9.55;;;2.10;;
42714;SDS011;28351;51.480;5.706;2023-05-02T12:45:42;3.35;;;1.77;;
42714;SDS011;28351;51.480;5.706;2023-05-02T12:48:18;3.72;;;1.77;;
42714;SDS011;28351;51.480;5.706;2023-05-02T12:50:51;4.60;;;1.88;;
42714;SDS011;28351;51.480;5.706;2023-05-02T12:53:36;3.40;;;1.50;;
42714;SDS011;28351;51.480;5.706;2023-05-02T12:56:06;4.75;;;1.92;;
42714;SDS011;28351;51.480;5.706;2023-05-02T12:58:42;3.60;;;1.70;;
42714;SDS011;28351;51.480;5.706;2023-05-02T13:01:09;3.42;;;1.80;;
42714;SDS011;28351;51.480;5.706;2023-05-02T13:03:38;5.88;;;2.20;;
42714;SDS011;28351;51.480;5.706;2023-05-02T13:06:26;3.40;;;1.90;;
42714;SDS011;28351;51.480;5.706;2023-05-02T13:09:28;3.25;;;1.77;;
42714;SDS011;28351;51.480;5.706;2023-05-02T13:12:09;4.72;;;2.28;;
42714;SDS011;28351;51.480;5.706;2023-05-02T13:14:40;3.30;;;1.73;;
42714;SDS011;28351;51.480;5.706;2023-05-02T13:17:19;4.85;;;2.00;;
42714;SDS011;28351;51.480;5.706;2023-05-02T13:19:57;3.47;;;1.77;;
42714;SDS011;28351;51.480;5.706;2023-05-02T13:28:22;3.17;;;1.85;;
42714;SDS011;28351;51.480;5.706;2023-05-02T13:30:48;4.93;;;2.05;;
42714;SDS011;28351;51.480;5.706;2023-05-02T13:33:14;3.92;;;2.22;;
42714;SDS011;28351;51.480;5.706;2023-05-02T13:35:39;2.90;;;2.00;;
42714;SDS011;28351;51.480;5.706;2023-05-02T13:38:05;3.75;;;2.03;;
42714;SDS011;28351;51.480;5.706;2023-05-02T13:40:39;3.33;;;1.88;;
42714;SDS011;28351;51.480;5.706;2023-05-02T13:43:05;5.05;;;2.10;;
42714;SDS011;28351;51.480;5.706;2023-05-02T13:45:31;6.10;;;1.90;;
42714;SDS011;28351;51.480;5.706;2023-05-02T13:47:57;4.07;;;1.90;;
42714;SDS011;28351;51.480;5.706;2023-05-02T13:50:22;4.82;;;2.17;;
42714;SDS011;28351;51.480;5.706;2023-05-02T13:52:48;5.00;;;2.28;;
42714;SDS011;28351;51.480;5.706;2023-05-02T13:55:23;2.63;;;1.83;;
42714;SDS011;28351;51.480;5.706;2023-05-02T13:58:19;5.18;;;2.03;;
42714;SDS011;28351;51.480;5.706;2023-05-02T14:03:38;3.70;;;1.90;;
42714;SDS011;28351;51.480;5.706;2023-05-02T14:06:19;3.22;;;1.90;;
42714;SDS011;28351;51.480;5.706;2023-05-02T14:08:47;3.75;;;2.20;;
42714;SDS011;28351;51.480;5.706;2023-05-02T14:11:48;2.85;;;2.10;;
42714;SDS011;28351;51.480;5.706;2023-05-02T14:14:14;4.90;;;1.70;;
42714;SDS011;28351;51.480;5.706;2023-05-02T14:19:38;3.83;;;1.90;;
42714;SDS011;28351;51.480;5.706;2023-05-02T14:22:09;3.40;;;1.80;;
42714;SDS011;28351;51.480;5.706;2023-05-02T14:24:38;5.63;;;2.20;;
42714;SDS011;28351;51.480;5.706;2023-05-02T14:30:08;7.18;;;2.40;;
42714;SDS011;28351;51.480;5.706;2023-05-02T14:35:28;4.60;;;2.10;;
42714;SDS011;28351;51.480;5.706;2023-05-02T14:37:54;4.28;;;2.53;;
42714;SDS011;28351;51.480;5.706;2023-05-02T14:40:27;4.82;;;2.05;;
42714;SDS011;28351;51.480;5.706;2023-05-02T14:43:08;5.85;;;2.30;;
42714;SDS011;28351;51.480;5.706;2023-05-02T14:45:44;5.45;;;2.40;;
42714;SDS011;28351;51.480;5.706;2023-05-02T14:48:10;6.45;;;2.55;;
42714;SDS011;28351;51.480;5.706;2023-05-02T15:07:45;2.90;;;2.15;;
42714;SDS011;28351;51.480;5.706;2023-05-02T15:13:39;7.15;;;2.40;;
42714;SDS011;28351;51.480;5.706;2023-05-02T15:16:08;5.30;;;2.78;;
42714;SDS011;28351;51.480;5.706;2023-05-02T15:21:45;4.85;;;1.95;;
42714;SDS011;28351;51.480;5.706;2023-05-02T15:27:39;5.97;;;2.60;;
42714;SDS011;28351;51.480;5.706;2023-05-02T15:33:37;4.40;;;2.60;;
42714;SDS011;28351;51.480;5.706;2023-05-02T15:51:59;5.25;;;2.60;;
42714;SDS011;28351;51.480;5.706;2023-05-02T16:00:39;4.10;;;2.38;;
42714;SDS011;28351;51.480;5.706;2023-05-02T16:06:26;7.45;;;3.28;;
42714;SDS011;28351;51.480;5.706;2023-05-02T16:15:36;5.95;;;2.40;;
42714;SDS011;28351;51.480;5.706;2023-05-02T16:18:02;5.25;;;2.45;;
42714;SDS011;28351;51.480;5.706;2023-05-02T16:20:28;7.38;;;2.70;;
42714;SDS011;28351;51.480;5.706;2023-05-02T16:22:53;6.82;;;2.70;;
42714;SDS011;28351;51.480;5.706;2023-05-02T16:25:19;7.85;;;2.80;;
42714;SDS011;28351;51.480;5.706;2023-05-02T16:27:48;7.10;;;2.97;;
42714;SDS011;28351;51.480;5.706;2023-05-02T16:30:13;6.25;;;2.40;;
42714;SDS011;28351;51.480;5.706;2023-05-02T16:32:42;8.10;;;2.90;;
42714;SDS011;28351;51.480;5.706;2023-05-02T16:38:05;4.60;;;2.40;;
42714;SDS011;28351;51.480;5.706;2023-05-02T16:40:37;4.90;;;2.42;;
42714;SDS011;28351;51.480;5.706;2023-05-02T16:43:04;6.30;;;2.67;;
42714;SDS011;28351;51.480;5.706;2023-05-02T16:45:36;6.53;;;2.50;;
42714;SDS011;28351;51.480;5.706;2023-05-02T16:48:02;6.30;;;2.33;;
42714;SDS011;28351;51.480;5.706;2023-05-02T16:50:28;8.65;;;2.38;;
42714;SDS011;28351;51.480;5.706;2023-05-02T16:52:53;5.55;;;2.47;;
42714;SDS011;28351;51.480;5.706;2023-05-02T16:55:19;4.60;;;2.08;;
42714;SDS011;28351;51.480;5.706;2023-05-02T17:00:13;8.20;;;3.08;;
42714;SDS011;28351;51.480;5.706;2023-05-02T17:02:40;7.00;;;2.58;;
42714;SDS011;28351;51.480;5.706;2023-05-02T17:05:06;6.07;;;2.40;;
42714;SDS011;28351;51.480;5.706;2023-05-02T17:07:33;5.15;;;2.70;;
42714;SDS011;28351;51.480;5.706;2023-05-02T17:09:59;5.72;;;2.38;;
42714;SDS011;28351;51.480;5.706;2023-05-02T17:12:30;5.60;;;3.00;;
42714;SDS011;28351;51.480;5.706;2023-05-02T17:14:56;5.00;;;3.30;;
42714;SDS011;28351;51.480;5.706;2023-05-02T17:17:22;9.02;;;3.28;;
42714;SDS011;28351;51.480;5.706;2023-05-02T17:19:48;3.65;;;2.50;;
42714;SDS011;28351;51.480;5.706;2023-05-02T17:22:13;4.60;;;2.35;;
42714;SDS011;28351;51.480;5.706;2023-05-02T17:24:43;9.98;;;2.70;;
42714;SDS011;28351;51.480;5.706;2023-05-02T17:27:12;9.55;;;3.00;;
42714;SDS011;28351;51.480;5.706;2023-05-02T17:29:37;4.97;;;2.47;;
42714;SDS011;28351;51.480;5.706;2023-05-02T17:32:03;4.68;;;2.42;;
42714;SDS011;28351;51.480;5.706;2023-05-02T17:34:30;6.32;;;2.70;;
42714;SDS011;28351;51.480;5.706;2023-05-02T17:36:57;8.45;;;3.22;;